sensor_id;sensor_type;location;lat;lon;timestamp;pressure;altitude;pressure_sealevel;temperature;humidity
51439;BME280;38816;51.142;-0.974;2022-08-19T00:00:14;99925.72;;;18.80;100.00
51439;BME280;38816;51.142;-0.974;2022-08-19T00:02:41;99911.13;;;18.73;100.00
51439;BME280;38816;51.142;-0.974;2022-08-19T00:05:08;99919.66;;;18.80;100.00
51439;BME280;38816;51.142;-0.974;2022-08-19T00:07:34;99924.03;;;18.79;100.00
51439;BME280;38816;51.142;-0.974;2022-08-19T00:09:59;99923.16;;;18.79;100.00
51439;BME280;38816;51.142;-0.974;2022-08-19T00:12:25;99915.47;;;18.74;100.00
51439;BME280;38816;51.142;-0.974;2022-08-19T00:14:50;99920.56;;;18.77;100.00
51439;BME280;38816;51.142;-0.974;2022-08-19T00:17:17;99928.50;;;18.72;100.00
51439;BME280;38816;51.142;-0.974;2022-08-19T00:19:42;99924.13;;;18.73;100.00
51439;BME280;38816;51.142;-0.974;2022-08-19T00:22:08;99919.03;;;18.70;100.00
51439;BME280;38816;51.142;-0.974;2022-08-19T00:24:33;99918.03;;;18.76;100.00
51439;BME280;38816;51.142;-0.974;2022-08-19T00:26:59;99908.50;;;18.73;100.00
51439;BME280;38816;51.142;-0.974;2022-08-19T00:29:27;99923.16;;;18.79;100.00
51439;BME280;38816;51.142;-0.974;2022-08-19T00:31:52;99911.09;;;18.75;100.00
51439;BME280;38816;51.142;-0.974;2022-08-19T00:34:20;99909.28;;;18.78;100.00
51439;BME280;38816;51.142;-0.974;2022-08-19T00:36:47;99910.03;;;18.83;100.00
51439;BME280;38816;51.142;-0.974;2022-08-19T00:39:13;99909.09;;;18.87;100.00
51439;BME280;38816;51.142;-0.974;2022-08-19T00:41:41;99893.56;;;18.83;100.00
51439;BME280;38816;51.142;-0.974;2022-08-19T00:44:14;99901.38;;;18.81;100.00
51439;BME280;38816;51.142;-0.974;2022-08-19T00:46:43;99903.03;;;18.87;100.00
51439;BME280;38816;51.142;-0.974;2022-08-19T00:49:12;99905.63;;;18.87;100.00
51439;BME280;38816;51.142;-0.974;2022-08-19T00:51:41;99884.13;;;18.77;100.00
51439;BME280;38816;51.142;-0.974;2022-08-19T00:54:07;99900.44;;;18.85;100.00
51439;BME280;38816;51.142;-0.974;2022-08-19T00:56:35;99904.00;;;18.81;100.00
51439;BME280;38816;51.142;-0.974;2022-08-19T00:59:02;99904.09;;;18.78;100.00
51439;BME280;38816;51.142;-0.974;2022-08-19T01:01:28;99893.84;;;18.70;100.00
51439;BME280;38816;51.142;-0.974;2022-08-19T01:03:54;99900.78;;;18.70;100.00
51439;BME280;38816;51.142;-0.974;2022-08-19T01:06:20;99883.78;;;18.52;100.00
51439;BME280;38816;51.142;-0.974;2022-08-19T01:08:45;99884.72;;;18.50;100.00
51439;BME280;38816;51.142;-0.974;2022-08-19T01:11:11;99886.50;;;18.47;100.00
51439;BME280;38816;51.142;-0.974;2022-08-19T01:13:37;99902.00;;;18.52;100.00
51439;BME280;38816;51.142;-0.974;2022-08-19T01:16:09;99901.16;;;18.52;100.00
51439;BME280;38816;51.142;-0.974;2022-08-19T01:18:39;99894.22;;;18.51;100.00
51439;BME280;38816;51.142;-0.974;2022-08-19T01:21:11;99897.72;;;18.51;100.00
51439;BME280;38816;51.142;-0.974;2022-08-19T01:23:40;99896.81;;;18.51;100.00
51439;BME280;38816;51.142;-0.974;2022-08-19T01:26:17;99900.25;;;18.53;100.00
51439;BME280;38816;51.142;-0.974;2022-08-19T01:28:46;99897.59;;;18.56;100.00
51439;BME280;38816;51.142;-0.974;2022-08-19T01:31:16;99891.56;;;18.54;100.00
51439;BME280;38816;51.142;-0.974;2022-08-19T01:33:41;99892.31;;;18.59;100.00
51439;BME280;38816;51.142;-0.974;2022-08-19T01:36:11;99895.81;;;18.58;100.00
51439;BME280;38816;51.142;-0.974;2022-08-19T01:38:40;99897.50;;;18.60;100.00
51439;BME280;38816;51.142;-0.974;2022-08-19T01:41:07;99901.06;;;18.56;100.00
51439;BME280;38816;51.142;-0.974;2022-08-19T01:43:33;99886.56;;;18.44;100.00
51439;BME280;38816;51.142;-0.974;2022-08-19T01:45:58;99879.69;;;18.40;100.00
51439;BME280;38816;51.142;-0.974;2022-08-19T01:48:24;99889.22;;;18.41;100.00
51439;BME280;38816;51.142;-0.974;2022-08-19T01:50:49;99885.91;;;18.35;100.00
51439;BME280;38816;51.142;-0.974;2022-08-19T01:53:15;99889.41;;;18.34;100.00
51439;BME280;38816;51.142;-0.974;2022-08-19T01:55:43;99891.09;;;18.35;100.00
51439;BME280;38816;51.142;-0.974;2022-08-19T01:58:13;99886.69;;;18.38;100.00
51439;BME280;38816;51.142;-0.974;2022-08-19T02:06:07;99888.19;;;18.48;100.00
51439;BME280;38816;51.142;-0.974;2022-08-19T02:08:36;99894.25;;;18.49;100.00
51439;BME280;38816;51.142;-0.974;2022-08-19T02:11:03;99889.94;;;18.48;100.00
51439;BME280;38816;51.142;-0.974;2022-08-19T02:13:29;99897.72;;;18.50;100.00
51439;BME280;38816;51.142;-0.974;2022-08-19T02:15:54;99903.75;;;18.52;100.00
51439;BME280;38816;51.142;-0.974;2022-08-19T02:18:20;99902.03;;;18.51;100.00
51439;BME280;38816;51.142;-0.974;2022-08-19T02:20:46;99888.34;;;18.41;100.00
51439;BME280;38816;51.142;-0.974;2022-08-19T02:23:16;99907.22;;;18.51;100.00
51439;BME280;38816;51.142;-0.974;2022-08-19T02:25:44;99894.25;;;18.49;100.00
51439;BME280;38816;51.142;-0.974;2022-08-19T02:28:10;99902.13;;;18.47;100.00
51439;BME280;38816;51.142;-0.974;2022-08-19T02:30:37;99898.66;;;18.45;100.00
51439;BME280;38816;51.142;-0.974;2022-08-19T02:33:03;99894.50;;;18.38;100.00
51439;BME280;38816;51.142;-0.974;2022-08-19T02:35:29;99901.47;;;18.36;100.00
51439;BME280;38816;51.142;-0.974;2022-08-19T02:37:55;99909.28;;;18.36;100.00
51439;BME280;38816;51.142;-0.974;2022-08-19T02:40:39;99906.66;;;18.38;100.00
51439;BME280;38816;51.142;-0.974;2022-08-19T02:43:06;99909.28;;;18.36;100.00
51439;BME280;38816;51.142;-0.974;2022-08-19T02:45:37;99900.81;;;18.28;100.00
51439;BME280;38816;51.142;-0.974;2022-08-19T02:48:03;99904.34;;;18.24;100.00
51439;BME280;38816;51.142;-0.974;2022-08-19T02:50:30;99898.41;;;18.17;100.00
51439;BME280;38816;51.142;-0.974;2022-08-19T02:52:55;99904.31;;;18.26;100.00
51439;BME280;38816;51.142;-0.974;2022-08-19T02:55:21;99913.06;;;18.21;100.00
51439;BME280;38816;51.142;-0.974;2022-08-19T02:57:47;99901.13;;;18.11;100.00
51439;BME280;38816;51.142;-0.974;2022-08-19T03:00:13;99914.28;;;18.04;100.00
51439;BME280;38816;51.142;-0.974;2022-08-19T03:02:39;99897.13;;;17.93;100.00
51439;BME280;38816;51.142;-0.974;2022-08-19T03:05:06;99909.13;;;18.02;100.00
51439;BME280;38816;51.142;-0.974;2022-08-19T03:07:32;99922.09;;;18.04;100.00
51439;BME280;38816;51.142;-0.974;2022-08-19T03:09:57;99916.97;;;17.99;100.00
51439;BME280;38816;51.142;-0.974;2022-08-19T03:12:23;99923.88;;;18.02;100.00
51439;BME280;38816;51.142;-0.974;2022-08-19T03:14:48;99923.03;;;18.00;100.00
51439;BME280;38816;51.142;-0.974;2022-08-19T03:17:14;99913.56;;;17.95;100.00
51439;BME280;38816;51.142;-0.974;2022-08-19T03:19:39;99924.78;;;17.99;100.00
51439;BME280;38816;51.142;-0.974;2022-08-19T03:22:05;99908.53;;;17.88;100.00
51439;BME280;38816;51.142;-0.974;2022-08-19T03:24:31;99917.00;;;17.96;100.00
51439;BME280;38816;51.142;-0.974;2022-08-19T03:26:56;99911.81;;;17.98;100.00
51439;BME280;38816;51.142;-0.974;2022-08-19T03:29:25;99914.31;;;18.02;100.00
51439;BME280;38816;51.142;-0.974;2022-08-19T03:31:50;99921.19;;;18.06;100.00
51439;BME280;38816;51.142;-0.974;2022-08-19T03:34:23;99925.41;;;18.12;100.00
51439;BME280;38816;51.142;-0.974;2022-08-19T03:36:55;99925.44;;;18.09;100.00
51439;BME280;38816;51.142;-0.974;2022-08-19T03:39:23;99919.47;;;18.04;100.00
51439;BME280;38816;51.142;-0.974;2022-08-19T03:41:50;99930.66;;;18.09;100.00
51439;BME280;38816;51.142;-0.974;2022-08-19T03:44:18;99938.50;;;18.07;100.00
51439;BME280;38816;51.142;-0.974;2022-08-19T03:46:51;99934.22;;;18.03;100.00
51439;BME280;38816;51.142;-0.974;2022-08-19T03:49:18;99935.22;;;17.96;100.00
51439;BME280;38816;51.142;-0.974;2022-08-19T03:51:44;99939.56;;;17.95;100.00
51439;BME280;38816;51.142;-0.974;2022-08-19T03:54:12;99934.38;;;17.95;100.00
51439;BME280;38816;51.142;-0.974;2022-08-19T03:56:40;99928.41;;;17.90;100.00
51439;BME280;38816;51.142;-0.974;2022-08-19T03:59:08;99934.41;;;17.94;100.00
51439;BME280;38816;51.142;-0.974;2022-08-19T04:01:34;99934.50;;;17.89;100.00
51439;BME280;38816;51.142;-0.974;2022-08-19T04:04:01;99913.94;;;17.74;100.00
51439;BME280;38816;51.142;-0.974;2022-08-19T04:06:32;99926.09;;;17.72;100.00
51439;BME280;38816;51.142;-0.974;2022-08-19T04:08:59;99934.09;;;17.61;100.00
51439;BME280;38816;51.142;-0.974;2022-08-19T04:11:33;99921.38;;;17.44;100.00
51439;BME280;38816;51.142;-0.974;2022-08-19T04:14:00;99928.34;;;17.42;100.00
51439;BME280;38816;51.142;-0.974;2022-08-19T04:16:27;99940.47;;;17.42;100.00
51439;BME280;38816;51.142;-0.974;2022-08-19T04:18:54;99934.53;;;17.35;100.00
51439;BME280;38816;51.142;-0.974;2022-08-19T04:21:23;99943.00;;;17.46;100.00
51439;BME280;38816;51.142;-0.974;2022-08-19T04:23:50;99936.88;;;17.51;100.00
51439;BME280;38816;51.142;-0.974;2022-08-19T04:26:25;99943.69;;;17.58;100.00
51439;BME280;38816;51.142;-0.974;2022-08-19T04:28:51;99934.94;;;17.62;100.00
51439;BME280;38816;51.142;-0.974;2022-08-19T04:31:25;99938.28;;;17.68;100.00
51439;BME280;38816;51.142;-0.974;2022-08-19T04:33:55;99941.75;;;17.69;100.00
51439;BME280;38816;51.142;-0.974;2022-08-19T04:36:24;99947.75;;;17.74;100.00
51439;BME280;38816;51.142;-0.974;2022-08-19T04:38:54;99950.34;;;17.74;100.00
51439;BME280;38816;51.142;-0.974;2022-08-19T04:41:20;99951.19;;;17.76;100.00
51439;BME280;38816;51.142;-0.974;2022-08-19T04:44:04;99959.91;;;17.72;100.00
51439;BME280;38816;51.142;-0.974;2022-08-19T04:46:30;99955.63;;;17.68;100.00
51439;BME280;38816;51.142;-0.974;2022-08-19T04:49:01;99971.03;;;17.82;100.00
51439;BME280;38816;51.142;-0.974;2022-08-19T04:51:27;99953.84;;;17.75;100.00
51439;BME280;38816;51.142;-0.974;2022-08-19T04:53:55;99973.63;;;17.82;100.00
51439;BME280;38816;51.142;-0.974;2022-08-19T04:56:21;99978.81;;;17.82;100.00
51439;BME280;38816;51.142;-0.974;2022-08-19T04:58:48;99977.22;;;17.75;100.00
51439;BME280;38816;51.142;-0.974;2022-08-19T05:01:27;99976.38;;;17.71;100.00
51439;BME280;38816;51.142;-0.974;2022-08-19T05:03:54;99973.00;;;17.66;100.00
51439;BME280;38816;51.142;-0.974;2022-08-19T05:06:21;99986.91;;;17.63;100.00
51439;BME280;38816;51.142;-0.974;2022-08-19T05:08:47;99972.53;;;17.41;100.00
51439;BME280;38816;51.142;-0.974;2022-08-19T05:13:41;99990.31;;;17.11;100.00
51439;BME280;38816;51.142;-0.974;2022-08-19T05:16:07;99987.78;;;17.05;100.00
51439;BME280;38816;51.142;-0.974;2022-08-19T05:18:33;99981.03;;;16.95;100.00
51439;BME280;38816;51.142;-0.974;2022-08-19T05:21:18;99976.63;;;17.00;100.00
51439;BME280;38816;51.142;-0.974;2022-08-19T05:24:03;99966.19;;;17.02;100.00
51439;BME280;38816;51.142;-0.974;2022-08-19T05:26:32;99983.38;;;17.10;100.00
51439;BME280;38816;51.142;-0.974;2022-08-19T05:28:58;99972.22;;;17.05;100.00
51439;BME280;38816;51.142;-0.974;2022-08-19T05:31:23;99975.78;;;16.98;100.00
51439;BME280;38816;51.142;-0.974;2022-08-19T05:33:48;99983.53;;;17.03;100.00
51439;BME280;38816;51.142;-0.974;2022-08-19T05:36:15;99990.47;;;17.02;100.00
51439;BME280;38816;51.142;-0.974;2022-08-19T05:38:40;99999.91;;;17.08;100.00
51439;BME280;38816;51.142;-0.974;2022-08-19T05:41:08;99995.66;;;17.02;100.00
51439;BME280;38816;51.142;-0.974;2022-08-19T05:43:33;100005.22;;;16.97;100.00
51439;BME280;38816;51.142;-0.974;2022-08-19T05:45:59;100010.53;;;16.89;100.00
51439;BME280;38816;51.142;-0.974;2022-08-19T05:48:24;100005.41;;;16.83;100.00
51439;BME280;38816;51.142;-0.974;2022-08-19T05:50:50;100014.88;;;16.87;100.00
51439;BME280;38816;51.142;-0.974;2022-08-19T05:53:16;100002.75;;;16.89;100.00
51439;BME280;38816;51.142;-0.974;2022-08-19T05:55:42;100016.56;;;16.91;100.00
51439;BME280;38816;51.142;-0.974;2022-08-19T05:58:07;100012.19;;;16.95;100.00
51439;BME280;38816;51.142;-0.974;2022-08-19T06:00:34;100016.50;;;16.93;100.00
51439;BME280;38816;51.142;-0.974;2022-08-19T06:02:59;100007.03;;;16.93;100.00
51439;BME280;38816;51.142;-0.974;2022-08-19T06:05:31;100007.81;;;16.97;100.00
51439;BME280;38816;51.142;-0.974;2022-08-19T06:07:57;100008.72;;;16.94;100.00
51439;BME280;38816;51.142;-0.974;2022-08-19T06:10:24;100023.34;;;17.03;100.00
51439;BME280;38816;51.142;-0.974;2022-08-19T06:12:49;100024.16;;;17.07;100.00
51439;BME280;38816;51.142;-0.974;2022-08-19T06:15:15;100023.38;;;16.99;100.00
51439;BME280;38816;51.142;-0.974;2022-08-19T06:17:40;100026.88;;;16.98;100.00
51439;BME280;38816;51.142;-0.974;2022-08-19T06:20:09;100031.19;;;16.99;100.00
51439;BME280;38816;51.142;-0.974;2022-08-19T06:22:41;100027.72;;;16.96;100.00
51439;BME280;38816;51.142;-0.974;2022-08-19T06:25:07;100017.53;;;16.84;100.00
51439;BME280;38816;51.142;-0.974;2022-08-19T06:27:34;100026.97;;;16.88;100.00
51439;BME280;38816;51.142;-0.974;2022-08-19T06:30:01;100014.03;;;16.85;100.00
51439;BME280;38816;51.142;-0.974;2022-08-19T06:32:26;100014.88;;;16.89;100.00
51439;BME280;38816;51.142;-0.974;2022-08-19T06:34:52;100019.09;;;16.98;100.00
51439;BME280;38816;51.142;-0.974;2022-08-19T06:37:17;100011.28;;;16.96;100.00
51439;BME280;38816;51.142;-0.974;2022-08-19T06:39:43;100005.13;;;17.05;100.00
51439;BME280;38816;51.142;-0.974;2022-08-19T06:42:10;100006.00;;;17.04;100.00
51439;BME280;38816;51.142;-0.974;2022-08-19T06:44:40;100027.41;;;17.21;100.00
51439;BME280;38816;51.142;-0.974;2022-08-19T06:47:08;100022.91;;;17.34;100.00
51439;BME280;38816;51.142;-0.974;2022-08-19T06:49:34;100010.56;;;17.46;100.00
51439;BME280;38816;51.142;-0.974;2022-08-19T06:52:00;100010.16;;;17.72;100.00
51439;BME280;38816;51.142;-0.974;2022-08-19T06:54:27;100023.34;;;18.13;100.00
51439;BME280;38816;51.142;-0.974;2022-08-19T06:56:54;100013.56;;;18.27;100.00
51439;BME280;38816;51.142;-0.974;2022-08-19T06:59:22;100020.19;;;18.43;100.00
51439;BME280;38816;51.142;-0.974;2022-08-19T07:01:50;100017.44;;;18.51;100.00
51439;BME280;38816;51.142;-0.974;2022-08-19T07:04:19;100013.66;;;18.69;100.00
51439;BME280;38816;51.142;-0.974;2022-08-19T07:06:45;100021.84;;;18.91;100.00
51439;BME280;38816;51.142;-0.974;2022-08-19T07:09:14;100008.47;;;19.08;100.00
51439;BME280;38816;51.142;-0.974;2022-08-19T07:11:49;100019.53;;;19.19;100.00
51439;BME280;38816;51.142;-0.974;2022-08-19T07:14:17;100015.06;;;19.22;100.00
51439;BME280;38816;51.142;-0.974;2022-08-19T07:16:43;100019.38;;;19.25;100.00
51439;BME280;38816;51.142;-0.974;2022-08-19T07:19:11;100026.34;;;19.25;100.00
51439;BME280;38816;51.142;-0.974;2022-08-19T07:21:36;100026.69;;;19.08;100.00
51439;BME280;38816;51.142;-0.974;2022-08-19T07:24:02;100030.59;;;18.88;100.00
51439;BME280;38816;51.142;-0.974;2022-08-19T07:26:31;100031.59;;;18.81;100.00
51439;BME280;38816;51.142;-0.974;2022-08-19T07:28:58;100031.69;;;18.78;100.00
51439;BME280;38816;51.142;-0.974;2022-08-19T07:31:26;100036.91;;;18.78;100.00
51439;BME280;38816;51.142;-0.974;2022-08-19T07:33:54;100049.22;;;18.67;100.00
51439;BME280;38816;51.142;-0.974;2022-08-19T07:36:26;100039.97;;;18.52;100.00
51439;BME280;38816;51.142;-0.974;2022-08-19T07:38:56;100046.09;;;18.50;100.00
51439;BME280;38816;51.142;-0.974;2022-08-19T07:41:24;100048.09;;;18.35;100.00
51439;BME280;38816;51.142;-0.974;2022-08-19T07:43:50;100039.56;;;18.27;100.00
51439;BME280;38816;51.142;-0.974;2022-08-19T07:46:17;100045.66;;;18.26;100.00
51439;BME280;38816;51.142;-0.974;2022-08-19T07:48:45;100035.56;;;18.11;100.00
51439;BME280;38816;51.142;-0.974;2022-08-19T07:51:16;100044.28;;;18.07;100.00
51439;BME280;38816;51.142;-0.974;2022-08-19T07:53:42;100045.09;;;18.09;100.00
51439;BME280;38816;51.142;-0.974;2022-08-19T07:56:10;100063.19;;;18.16;100.00
51439;BME280;38816;51.142;-0.974;2022-08-19T07:58:38;100058.88;;;18.14;100.00
51439;BME280;38816;51.142;-0.974;2022-08-19T08:01:06;100072.06;;;18.05;100.00
51439;BME280;38816;51.142;-0.974;2022-08-19T08:03:32;100067.78;;;18.02;100.00
51439;BME280;38816;51.142;-0.974;2022-08-19T08:06:17;100067.00;;;17.95;100.00
51439;BME280;38816;51.142;-0.974;2022-08-19T08:09:22;100073.22;;;17.88;100.00
51439;BME280;38816;51.142;-0.974;2022-08-19T08:11:54;100077.75;;;17.72;100.00
51439;BME280;38816;51.142;-0.974;2022-08-19T08:14:23;100071.03;;;17.58;100.00
51439;BME280;38816;51.142;-0.974;2022-08-19T08:16:49;100070.31;;;17.48;100.00
51439;BME280;38816;51.142;-0.974;2022-08-19T08:19:18;100071.16;;;17.50;100.00
51439;BME280;38816;51.142;-0.974;2022-08-19T08:21:44;100080.31;;;17.79;100.00
51439;BME280;38816;51.142;-0.974;2022-08-19T08:24:10;100073.53;;;18.21;100.00
51439;BME280;38816;51.142;-0.974;2022-08-19T08:26:37;100060.84;;;18.49;100.00
51439;BME280;38816;51.142;-0.974;2022-08-19T08:29:02;100068.84;;;18.86;98.87
51439;BME280;38816;51.142;-0.974;2022-08-19T08:31:28;100068.09;;;18.80;96.39
51439;BME280;38816;51.142;-0.974;2022-08-19T08:33:54;100067.78;;;18.95;97.68
51439;BME280;38816;51.142;-0.974;2022-08-19T08:36:20;100066.13;;;19.33;97.88
51439;BME280;38816;51.142;-0.974;2022-08-19T08:38:45;100070.78;;;19.57;95.29
51439;BME280;38816;51.142;-0.974;2022-08-19T08:41:19;100068.84;;;19.67;90.06
51439;BME280;38816;51.142;-0.974;2022-08-19T08:43:49;100070.69;;;19.62;89.67
51439;BME280;38816;51.142;-0.974;2022-08-19T08:52:11;100069.81;;;19.98;87.55
51439;BME280;38816;51.142;-0.974;2022-08-19T08:54:43;100066.22;;;20.03;80.29
51439;BME280;38816;51.142;-0.974;2022-08-19T08:57:15;100072.03;;;20.14;77.81
51439;BME280;38816;51.142;-0.974;2022-08-19T08:59:46;100063.00;;;19.93;68.88
51439;BME280;38816;51.142;-0.974;2022-08-19T09:02:17;100064.91;;;19.86;72.21
51439;BME280;38816;51.142;-0.974;2022-08-19T09:04:42;100059.47;;;19.95;69.66
51439;BME280;38816;51.142;-0.974;2022-08-19T09:09:42;100059.56;;;20.25;70.71
51439;BME280;38816;51.142;-0.974;2022-08-19T09:15:00;100071.88;;;20.54;69.48
51439;BME280;38816;51.142;-0.974;2022-08-19T09:17:28;100070.28;;;20.48;69.25
51439;BME280;38816;51.142;-0.974;2022-08-19T09:22:31;100075.91;;;20.66;68.85
51439;BME280;38816;51.142;-0.974;2022-08-19T09:24:57;100057.13;;;20.52;69.17
51439;BME280;38816;51.142;-0.974;2022-08-19T09:27:24;100068.25;;;20.60;67.49
51439;BME280;38816;51.142;-0.974;2022-08-19T09:29:51;100072.88;;;20.48;69.83
51439;BME280;38816;51.142;-0.974;2022-08-19T09:32:16;100094.75;;;20.43;68.14
51439;BME280;38816;51.142;-0.974;2022-08-19T09:34:43;100072.59;;;20.25;68.32
51439;BME280;38816;51.142;-0.974;2022-08-19T09:37:09;100077.72;;;20.30;68.88
51439;BME280;38816;51.142;-0.974;2022-08-19T09:39:35;100089.72;;;20.37;66.60
51439;BME280;38816;51.142;-0.974;2022-08-19T09:42:00;100089.78;;;20.34;67.27
51439;BME280;38816;51.142;-0.974;2022-08-19T09:44:28;100077.88;;;20.23;68.06
51439;BME280;38816;51.142;-0.974;2022-08-19T09:46:54;100082.19;;;20.24;69.31
51439;BME280;38816;51.142;-0.974;2022-08-19T09:49:20;100075.16;;;20.28;70.94
51439;BME280;38816;51.142;-0.974;2022-08-19T09:51:49;100083.31;;;20.48;69.15
51439;BME280;38816;51.142;-0.974;2022-08-19T09:54:15;100081.25;;;20.61;69.51
51439;BME280;38816;51.142;-0.974;2022-08-19T09:56:40;100087.97;;;20.70;68.64
51439;BME280;38816;51.142;-0.974;2022-08-19T09:59:06;100085.09;;;20.79;68.25
51439;BME280;38816;51.142;-0.974;2022-08-19T10:01:33;100079.53;;;20.91;67.21
51439;BME280;38816;51.142;-0.974;2022-08-19T10:04:00;100083.50;;;21.05;63.50
51439;BME280;38816;51.142;-0.974;2022-08-19T10:06:29;100083.25;;;21.14;62.99
51439;BME280;38816;51.142;-0.974;2022-08-19T10:08:58;100070.88;;;21.19;62.96
51439;BME280;38816;51.142;-0.974;2022-08-19T10:11:24;100085.69;;;21.49;62.09
51439;BME280;38816;51.142;-0.974;2022-08-19T10:13:50;100085.75;;;21.74;60.93
51439;BME280;38816;51.142;-0.974;2022-08-19T10:16:19;100088.22;;;21.79;59.61
51439;BME280;38816;51.142;-0.974;2022-08-19T10:18:45;100087.28;;;21.82;59.48
51439;BME280;38816;51.142;-0.974;2022-08-19T10:21:19;100089.97;;;21.80;58.50
51439;BME280;38816;51.142;-0.974;2022-08-19T10:23:48;100083.50;;;21.64;59.16
51439;BME280;38816;51.142;-0.974;2022-08-19T10:26:23;100083.88;;;21.52;60.15
51439;BME280;38816;51.142;-0.974;2022-08-19T10:28:49;100079.38;;;21.27;60.91
51439;BME280;38816;51.142;-0.974;2022-08-19T10:31:21;100082.78;;;21.29;61.16
51439;BME280;38816;51.142;-0.974;2022-08-19T10:33:48;100090.91;;;21.49;59.00
51439;BME280;38816;51.142;-0.974;2022-08-19T10:36:20;100087.09;;;21.60;56.26
51439;BME280;38816;51.142;-0.974;2022-08-19T10:38:50;100091.34;;;21.64;55.55
51439;BME280;38816;51.142;-0.974;2022-08-19T10:41:28;100106.25;;;21.62;56.18
51439;BME280;38816;51.142;-0.974;2022-08-19T10:43:55;100091.41;;;21.61;54.75
51439;BME280;38816;51.142;-0.974;2022-08-19T10:46:23;100101.19;;;21.56;56.02
51439;BME280;38816;51.142;-0.974;2022-08-19T10:48:49;100098.81;;;21.48;54.51
51439;BME280;38816;51.142;-0.974;2022-08-19T10:51:15;100099.00;;;21.42;54.75
51439;BME280;38816;51.142;-0.974;2022-08-19T10:54:16;100109.78;;;21.30;53.57
51439;BME280;38816;51.142;-0.974;2022-08-19T10:56:42;100112.94;;;21.11;52.76
51439;BME280;38816;51.142;-0.974;2022-08-19T11:01:46;100108.47;;;20.85;52.24
51439;BME280;38816;51.142;-0.974;2022-08-19T11:04:12;100115.09;;;20.97;52.70
51439;BME280;38816;51.142;-0.974;2022-08-19T11:06:42;100116.41;;;21.12;51.64
51439;BME280;38816;51.142;-0.974;2022-08-19T11:09:09;100118.91;;;21.16;50.30
51439;BME280;38816;51.142;-0.974;2022-08-19T11:11:36;100118.78;;;21.21;51.59
51439;BME280;38816;51.142;-0.974;2022-08-19T11:14:06;100134.88;;;21.06;50.20
51439;BME280;38816;51.142;-0.974;2022-08-19T11:16:32;100119.38;;;20.99;50.62
51439;BME280;38816;51.142;-0.974;2022-08-19T11:18:58;100122.72;;;21.05;49.70
51439;BME280;38816;51.142;-0.974;2022-08-19T11:21:27;100130.75;;;20.97;50.33
51439;BME280;38816;51.142;-0.974;2022-08-19T11:23:56;100118.41;;;21.02;50.47
51439;BME280;38816;51.142;-0.974;2022-08-19T11:26:22;100125.56;;;21.27;49.71
51439;BME280;38816;51.142;-0.974;2022-08-19T11:28:49;100125.22;;;21.39;48.29
51439;BME280;38816;51.142;-0.974;2022-08-19T11:31:21;100122.97;;;21.25;50.28
51439;BME280;38816;51.142;-0.974;2022-08-19T11:33:47;100119.69;;;21.49;49.71
51439;BME280;38816;51.142;-0.974;2022-08-19T11:36:16;100124.00;;;21.51;48.51
51439;BME280;38816;51.142;-0.974;2022-08-19T11:38:41;100107.47;;;21.50;49.51
51439;BME280;38816;51.142;-0.974;2022-08-19T11:41:08;100114.50;;;21.48;50.52
51439;BME280;38816;51.142;-0.974;2022-08-19T11:43:36;100112.22;;;21.65;48.23
51439;BME280;38816;51.142;-0.974;2022-08-19T11:46:07;100113.97;;;21.65;47.15
51439;BME280;38816;51.142;-0.974;2022-08-19T11:48:33;100108.13;;;21.57;47.39
51439;BME280;38816;51.142;-0.974;2022-08-19T11:50:58;100102.59;;;21.66;46.91
51439;BME280;38816;51.142;-0.974;2022-08-19T11:53:24;100113.75;;;21.99;46.96
51439;BME280;38816;51.142;-0.974;2022-08-19T11:55:52;100122.91;;;22.14;46.29
51439;BME280;38816;51.142;-0.974;2022-08-19T11:58:21;100115.25;;;22.34;45.68
51439;BME280;38816;51.142;-0.974;2022-08-19T12:00:47;100113.13;;;22.19;45.04
51439;BME280;38816;51.142;-0.974;2022-08-19T12:03:13;100104.75;;;22.08;45.07
51439;BME280;38816;51.142;-0.974;2022-08-19T12:05:39;100105.28;;;22.19;45.53
51439;BME280;38816;51.142;-0.974;2022-08-19T12:08:06;100107.63;;;22.27;44.04
51439;BME280;38816;51.142;-0.974;2022-08-19T12:10:32;100113.00;;;22.48;44.49
51439;BME280;38816;51.142;-0.974;2022-08-19T12:12:58;100096.03;;;22.59;43.66
51439;BME280;38816;51.142;-0.974;2022-08-19T12:15:26;100104.06;;;22.79;41.78
51439;BME280;38816;51.142;-0.974;2022-08-19T12:17:53;100108.06;;;22.64;41.89
51439;BME280;38816;51.142;-0.974;2022-08-19T12:20:22;100098.16;;;22.74;41.77
51439;BME280;38816;51.142;-0.974;2022-08-19T12:22:48;100091.84;;;22.78;40.44
51439;BME280;38816;51.142;-0.974;2022-08-19T12:25:14;100093.69;;;22.76;39.86
51439;BME280;38816;51.142;-0.974;2022-08-19T12:27:40;100110.25;;;22.77;39.68
51439;BME280;38816;51.142;-0.974;2022-08-19T12:30:08;100098.00;;;22.77;41.39
51439;BME280;38816;51.142;-0.974;2022-08-19T12:32:33;100114.34;;;23.09;40.94
51439;BME280;38816;51.142;-0.974;2022-08-19T12:34:59;100117.44;;;23.20;39.22
51439;BME280;38816;51.142;-0.974;2022-08-19T12:37:24;100104.78;;;23.31;38.17
51439;BME280;38816;51.142;-0.974;2022-08-19T12:39:50;100109.97;;;23.33;38.47
51439;BME280;38816;51.142;-0.974;2022-08-19T12:42:16;100112.88;;;23.25;37.94
51439;BME280;38816;51.142;-0.974;2022-08-19T12:44:42;100103.88;;;23.09;37.07
51439;BME280;38816;51.142;-0.974;2022-08-19T12:47:10;100092.38;;;22.89;38.87
51439;BME280;38816;51.142;-0.974;2022-08-19T12:49:36;100102.06;;;23.11;38.44
51439;BME280;38816;51.142;-0.974;2022-08-19T12:52:06;100089.44;;;23.20;38.33
51439;BME280;38816;51.142;-0.974;2022-08-19T12:54:34;100098.78;;;23.28;37.11
51439;BME280;38816;51.142;-0.974;2022-08-19T12:57:00;100089.50;;;23.19;37.34
51439;BME280;38816;51.142;-0.974;2022-08-19T12:59:26;100102.41;;;23.25;36.55
51439;BME280;38816;51.142;-0.974;2022-08-19T13:01:52;100093.72;;;23.23;36.95
51439;BME280;38816;51.142;-0.974;2022-08-19T13:04:18;100098.84;;;23.26;36.59